sensor_id;sensor_type;location;lat;lon;timestamp;P1;durP1;ratioP1;P2;durP2;ratioP2
75297;SDS011;63896;45.990;18.688;2023-08-01T00:02:55;10.68;;;5.22;;
75297;SDS011;63896;45.990;18.688;2023-08-01T00:05:59;8.03;;;4.57;;
75297;SDS011;63896;45.990;18.688;2023-08-01T00:09:02;8.35;;;4.90;;
75297;SDS011;63896;45.990;18.688;2023-08-01T00:12:05;10.93;;;5.00;;
75297;SDS011;63896;45.990;18.688;2023-08-01T00:15:08;10.13;;;4.65;;
75297;SDS011;63896;45.990;18.688;2023-08-01T00:18:11;8.75;;;4.85;;
75297;SDS011;63896;45.990;18.688;2023-08-01T00:21:15;6.87;;;4.87;;
75297;SDS011;63896;45.990;18.688;2023-08-01T00:24:18;7.72;;;4.40;;
75297;SDS011;63896;45.990;18.688;2023-08-01T00:27:21;5.25;;;4.22;;
75297;SDS011;63896;45.990;18.688;2023-08-01T00:30:25;4.88;;;3.90;;
75297;SDS011;63896;45.990;18.688;2023-08-01T00:33:28;5.75;;;4.25;;
75297;SDS011;63896;45.990;18.688;2023-08-01T00:36:31;7.77;;;4.50;;
75297;SDS011;63896;45.990;18.688;2023-08-01T00:39:34;6.47;;;4.78;;
75297;SDS011;63896;45.990;18.688;2023-08-01T00:42:37;7.18;;;4.60;;
75297;SDS011;63896;45.990;18.688;2023-08-01T00:45:40;6.63;;;4.10;;
75297;SDS011;63896;45.990;18.688;2023-08-01T00:48:43;6.88;;;4.35;;
75297;SDS011;63896;45.990;18.688;2023-08-01T00:51:46;6.03;;;3.90;;
75297;SDS011;63896;45.990;18.688;2023-08-01T00:54:50;6.43;;;3.90;;
75297;SDS011;63896;45.990;18.688;2023-08-01T00:57:53;6.30;;;3.88;;
75297;SDS011;63896;45.990;18.688;2023-08-01T01:00:56;5.43;;;3.80;;
75297;SDS011;63896;45.990;18.688;2023-08-01T01:04:00;6.30;;;4.00;;
75297;SDS011;63896;45.990;18.688;2023-08-01T01:07:03;6.20;;;3.93;;
75297;SDS011;63896;45.990;18.688;2023-08-01T01:10:09;7.47;;;3.95;;
75297;SDS011;63896;45.990;18.688;2023-08-01T01:13:12;5.00;;;3.78;;
75297;SDS011;63896;45.990;18.688;2023-08-01T01:16:15;6.97;;;3.63;;
75297;SDS011;63896;45.990;18.688;2023-08-01T01:19:18;8.27;;;3.80;;
75297;SDS011;63896;45.990;18.688;2023-08-01T01:22:20;5.17;;;3.97;;
75297;SDS011;63896;45.990;18.688;2023-08-01T01:25:24;5.68;;;3.88;;
75297;SDS011;63896;45.990;18.688;2023-08-01T01:28:28;6.80;;;4.28;;
75297;SDS011;63896;45.990;18.688;2023-08-01T01:31:32;6.70;;;3.90;;
75297;SDS011;63896;45.990;18.688;2023-08-01T01:34:36;8.02;;;3.95;;
75297;SDS011;63896;45.990;18.688;2023-08-01T01:37:39;11.80;;;4.93;;
75297;SDS011;63896;45.990;18.688;2023-08-01T01:40:42;8.40;;;4.53;;
75297;SDS011;63896;45.990;18.688;2023-08-01T01:43:45;7.40;;;4.10;;
75297;SDS011;63896;45.990;18.688;2023-08-01T01:46:48;9.85;;;4.40;;
75297;SDS011;63896;45.990;18.688;2023-08-01T01:49:52;7.10;;;4.47;;
75297;SDS011;63896;45.990;18.688;2023-08-01T01:52:54;6.63;;;4.50;;
75297;SDS011;63896;45.990;18.688;2023-08-01T01:55:57;7.25;;;4.28;;
75297;SDS011;63896;45.990;18.688;2023-08-01T01:59:00;6.50;;;4.47;;
75297;SDS011;63896;45.990;18.688;2023-08-01T02:02:03;6.80;;;4.40;;
75297;SDS011;63896;45.990;18.688;2023-08-01T02:05:07;8.25;;;4.03;;
75297;SDS011;63896;45.990;18.688;2023-08-01T02:08:10;7.50;;;4.33;;
75297;SDS011;63896;45.990;18.688;2023-08-01T02:11:13;7.82;;;4.72;;
75297;SDS011;63896;45.990;18.688;2023-08-01T02:14:16;6.43;;;4.68;;
75297;SDS011;63896;45.990;18.688;2023-08-01T02:17:18;9.40;;;5.13;;
75297;SDS011;63896;45.990;18.688;2023-08-01T02:20:21;6.85;;;4.50;;
75297;SDS011;63896;45.990;18.688;2023-08-01T02:23:24;7.20;;;4.00;;
75297;SDS011;63896;45.990;18.688;2023-08-01T02:26:27;5.35;;;3.85;;
75297;SDS011;63896;45.990;18.688;2023-08-01T02:29:31;5.93;;;4.20;;
75297;SDS011;63896;45.990;18.688;2023-08-01T02:32:34;7.53;;;3.83;;
75297;SDS011;63896;45.990;18.688;2023-08-01T02:35:37;6.00;;;3.78;;
75297;SDS011;63896;45.990;18.688;2023-08-01T02:38:40;8.63;;;3.60;;
75297;SDS011;63896;45.990;18.688;2023-08-01T02:41:43;8.32;;;3.67;;
75297;SDS011;63896;45.990;18.688;2023-08-01T02:44:45;6.50;;;4.10;;
75297;SDS011;63896;45.990;18.688;2023-08-01T02:47:48;9.98;;;4.25;;
75297;SDS011;63896;45.990;18.688;2023-08-01T02:50:51;8.50;;;3.88;;
75297;SDS011;63896;45.990;18.688;2023-08-01T02:53:54;5.27;;;3.80;;
75297;SDS011;63896;45.990;18.688;2023-08-01T02:56:57;4.90;;;4.07;;
75297;SDS011;63896;45.990;18.688;2023-08-01T02:59:59;8.20;;;4.70;;
75297;SDS011;63896;45.990;18.688;2023-08-01T03:03:02;6.55;;;4.30;;
75297;SDS011;63896;45.990;18.688;2023-08-01T03:06:06;7.50;;;4.20;;
75297;SDS011;63896;45.990;18.688;2023-08-01T03:09:10;5.87;;;4.10;;
75297;SDS011;63896;45.990;18.688;2023-08-01T03:12:13;6.35;;;4.45;;
75297;SDS011;63896;45.990;18.688;2023-08-01T03:15:16;8.25;;;3.72;;
75297;SDS011;63896;45.990;18.688;2023-08-01T03:18:19;10.30;;;4.00;;
75297;SDS011;63896;45.990;18.688;2023-08-01T03:21:22;6.65;;;4.28;;
75297;SDS011;63896;45.990;18.688;2023-08-01T03:24:25;6.83;;;3.27;;
75297;SDS011;63896;45.990;18.688;2023-08-01T03:27:27;8.10;;;3.30;;
75297;SDS011;63896;45.990;18.688;2023-08-01T03:30:33;7.85;;;3.53;;
75297;SDS011;63896;45.990;18.688;2023-08-01T03:33:36;4.75;;;3.38;;
75297;SDS011;63896;45.990;18.688;2023-08-01T03:36:39;8.88;;;3.75;;
75297;SDS011;63896;45.990;18.688;2023-08-01T03:39:42;8.13;;;4.33;;
75297;SDS011;63896;45.990;18.688;2023-08-01T03:42:45;8.15;;;4.18;;
75297;SDS011;63896;45.990;18.688;2023-08-01T03:45:48;8.30;;;4.63;;
75297;SDS011;63896;45.990;18.688;2023-08-01T03:48:52;9.30;;;4.38;;
75297;SDS011;63896;45.990;18.688;2023-08-01T03:51:54;8.23;;;5.35;;
75297;SDS011;63896;45.990;18.688;2023-08-01T03:55:01;8.50;;;4.70;;
75297;SDS011;63896;45.990;18.688;2023-08-01T03:58:04;10.77;;;4.90;;
75297;SDS011;63896;45.990;18.688;2023-08-01T04:01:07;11.57;;;4.22;;
75297;SDS011;63896;45.990;18.688;2023-08-01T04:04:10;9.45;;;4.47;;
75297;SDS011;63896;45.990;18.688;2023-08-01T04:07:13;8.38;;;4.35;;
75297;SDS011;63896;45.990;18.688;2023-08-01T04:10:16;6.60;;;4.43;;
75297;SDS011;63896;45.990;18.688;2023-08-01T04:13:19;7.70;;;4.55;;
75297;SDS011;63896;45.990;18.688;2023-08-01T04:16:22;9.77;;;4.95;;
75297;SDS011;63896;45.990;18.688;2023-08-01T04:19:25;7.88;;;4.53;;
75297;SDS011;63896;45.990;18.688;2023-08-01T04:22:28;7.88;;;4.80;;
75297;SDS011;63896;45.990;18.688;2023-08-01T04:25:30;12.07;;;4.77;;
75297;SDS011;63896;45.990;18.688;2023-08-01T04:28:34;9.60;;;5.07;;
75297;SDS011;63896;45.990;18.688;2023-08-01T04:31:37;9.80;;;4.90;;
75297;SDS011;63896;45.990;18.688;2023-08-01T04:34:40;7.00;;;4.97;;
75297;SDS011;63896;45.990;18.688;2023-08-01T04:37:43;8.93;;;5.00;;
75297;SDS011;63896;45.990;18.688;2023-08-01T04:40:46;7.67;;;4.47;;
75297;SDS011;63896;45.990;18.688;2023-08-01T04:43:49;8.05;;;4.47;;
75297;SDS011;63896;45.990;18.688;2023-08-01T04:46:51;5.38;;;3.88;;
75297;SDS011;63896;45.990;18.688;2023-08-01T04:49:54;7.28;;;3.75;;
75297;SDS011;63896;45.990;18.688;2023-08-01T04:52:57;5.45;;;3.72;;
75297;SDS011;63896;45.990;18.688;2023-08-01T04:56:00;4.13;;;3.33;;
75297;SDS011;63896;45.990;18.688;2023-08-01T04:59:03;6.70;;;3.60;;
75297;SDS011;63896;45.990;18.688;2023-08-01T05:02:06;7.40;;;4.43;;
75297;SDS011;63896;45.990;18.688;2023-08-01T05:05:08;4.80;;;3.40;;
75297;SDS011;63896;45.990;18.688;2023-08-01T05:08:11;4.93;;;3.60;;
75297;SDS011;63896;45.990;18.688;2023-08-01T05:11:14;3.50;;;2.93;;
75297;SDS011;63896;45.990;18.688;2023-08-01T05:14:17;6.22;;;3.20;;
75297;SDS011;63896;45.990;18.688;2023-08-01T05:17:19;8.63;;;3.58;;
75297;SDS011;63896;45.990;18.688;2023-08-01T05:20:22;4.72;;;3.00;;
75297;SDS011;63896;45.990;18.688;2023-08-01T05:23:25;4.90;;;3.13;;
75297;SDS011;63896;45.990;18.688;2023-08-01T05:26:28;8.33;;;2.97;;
75297;SDS011;63896;45.990;18.688;2023-08-01T05:29:31;5.30;;;2.97;;
75297;SDS011;63896;45.990;18.688;2023-08-01T05:32:33;6.30;;;2.90;;
75297;SDS011;63896;45.990;18.688;2023-08-01T05:35:36;5.43;;;2.63;;
75297;SDS011;63896;45.990;18.688;2023-08-01T05:38:39;9.65;;;3.20;;
75297;SDS011;63896;45.990;18.688;2023-08-01T05:41:42;5.30;;;2.60;;
75297;SDS011;63896;45.990;18.688;2023-08-01T05:44:45;5.28;;;2.47;;
75297;SDS011;63896;45.990;18.688;2023-08-01T05:47:48;6.47;;;2.70;;
75297;SDS011;63896;45.990;18.688;2023-08-01T05:50:51;3.50;;;2.50;;
75297;SDS011;63896;45.990;18.688;2023-08-01T05:53:55;4.93;;;2.45;;
75297;SDS011;63896;45.990;18.688;2023-08-01T05:56:58;4.57;;;2.67;;
75297;SDS011;63896;45.990;18.688;2023-08-01T06:00:02;6.13;;;2.50;;
75297;SDS011;63896;45.990;18.688;2023-08-01T06:03:13;6.28;;;2.70;;
75297;SDS011;63896;45.990;18.688;2023-08-01T06:06:17;7.20;;;2.60;;
75297;SDS011;63896;45.990;18.688;2023-08-01T06:09:21;3.00;;;1.92;;
75297;SDS011;63896;45.990;18.688;2023-08-01T06:12:25;4.80;;;2.33;;
75297;SDS011;63896;45.990;18.688;2023-08-01T06:15:28;5.80;;;2.10;;
75297;SDS011;63896;45.990;18.688;2023-08-01T06:18:31;5.32;;;2.03;;
75297;SDS011;63896;45.990;18.688;2023-08-01T06:21:34;3.15;;;1.98;;
75297;SDS011;63896;45.990;18.688;2023-08-01T06:24:37;5.93;;;2.15;;
75297;SDS011;63896;45.990;18.688;2023-08-01T06:27:41;3.17;;;1.70;;
75297;SDS011;63896;45.990;18.688;2023-08-01T06:30:47;6.93;;;2.22;;
75297;SDS011;63896;45.990;18.688;2023-08-01T06:34:08;5.72;;;2.10;;
75297;SDS011;63896;45.990;18.688;2023-08-01T06:37:11;5.97;;;2.05;;
75297;SDS011;63896;45.990;18.688;2023-08-01T06:40:14;2.90;;;1.83;;
75297;SDS011;63896;45.990;18.688;2023-08-01T06:43:17;5.43;;;1.67;;
75297;SDS011;63896;45.990;18.688;2023-08-01T06:46:23;2.97;;;1.70;;
75297;SDS011;63896;45.990;18.688;2023-08-01T06:49:29;4.30;;;1.65;;
75297;SDS011;63896;45.990;18.688;2023-08-01T06:52:31;3.63;;;1.63;;
75297;SDS011;63896;45.990;18.688;2023-08-01T06:55:34;3.58;;;1.48;;
75297;SDS011;63896;45.990;18.688;2023-08-01T06:58:37;3.33;;;1.60;;
75297;SDS011;63896;45.990;18.688;2023-08-01T07:01:40;4.45;;;2.20;;
75297;SDS011;63896;45.990;18.688;2023-08-01T07:04:45;4.10;;;1.92;;
75297;SDS011;63896;45.990;18.688;2023-08-01T07:07:48;3.58;;;1.50;;
75297;SDS011;63896;45.990;18.688;2023-08-01T07:10:51;3.35;;;1.30;;
75297;SDS011;63896;45.990;18.688;2023-08-01T07:13:54;4.90;;;2.80;;
75297;SDS011;63896;45.990;18.688;2023-08-01T07:16:57;8.02;;;2.78;;
75297;SDS011;63896;45.990;18.688;2023-08-01T07:20:00;8.73;;;3.20;;
75297;SDS011;63896;45.990;18.688;2023-08-01T07:23:02;4.70;;;1.88;;
75297;SDS011;63896;45.990;18.688;2023-08-01T07:26:05;2.85;;;1.73;;
75297;SDS011;63896;45.990;18.688;2023-08-01T07:29:08;3.93;;;1.80;;
75297;SDS011;63896;45.990;18.688;2023-08-01T07:32:13;3.88;;;1.80;;
75297;SDS011;63896;45.990;18.688;2023-08-01T07:35:17;4.45;;;2.10;;
75297;SDS011;63896;45.990;18.688;2023-08-01T07:38:20;5.63;;;1.63;;
75297;SDS011;63896;45.990;18.688;2023-08-01T07:41:23;3.05;;;1.58;;
75297;SDS011;63896;45.990;18.688;2023-08-01T07:44:26;2.70;;;1.90;;
75297;SDS011;63896;45.990;18.688;2023-08-01T07:47:29;2.53;;;1.77;;
75297;SDS011;63896;45.990;18.688;2023-08-01T07:50:32;5.30;;;1.73;;
75297;SDS011;63896;45.990;18.688;2023-08-01T07:53:35;3.53;;;1.52;;
75297;SDS011;63896;45.990;18.688;2023-08-01T07:56:37;2.90;;;1.70;;
75297;SDS011;63896;45.990;18.688;2023-08-01T07:59:41;4.27;;;1.73;;
75297;SDS011;63896;45.990;18.688;2023-08-01T08:02:44;5.60;;;1.77;;
75297;SDS011;63896;45.990;18.688;2023-08-01T08:05:48;2.28;;;1.70;;
75297;SDS011;63896;45.990;18.688;2023-08-01T08:08:51;3.35;;;1.48;;
75297;SDS011;63896;45.990;18.688;2023-08-01T08:11:54;2.08;;;1.50;;
75297;SDS011;63896;45.990;18.688;2023-08-01T08:14:59;2.43;;;1.70;;
75297;SDS011;63896;45.990;18.688;2023-08-01T08:18:02;4.68;;;1.60;;
75297;SDS011;63896;45.990;18.688;2023-08-01T08:21:07;3.67;;;1.67;;
75297;SDS011;63896;45.990;18.688;2023-08-01T08:24:10;4.90;;;1.70;;
75297;SDS011;63896;45.990;18.688;2023-08-01T08:27:13;2.90;;;1.55;;
75297;SDS011;63896;45.990;18.688;2023-08-01T08:30:15;2.80;;;1.60;;
75297;SDS011;63896;45.990;18.688;2023-08-01T08:33:21;3.40;;;1.70;;
75297;SDS011;63896;45.990;18.688;2023-08-01T08:36:24;3.90;;;1.50;;
75297;SDS011;63896;45.990;18.688;2023-08-01T08:39:27;3.53;;;1.90;;
75297;SDS011;63896;45.990;18.688;2023-08-01T08:42:32;9.15;;;1.70;;
75297;SDS011;63896;45.990;18.688;2023-08-01T08:45:36;2.57;;;1.80;;
75297;SDS011;63896;45.990;18.688;2023-08-01T08:48:43;2.75;;;1.45;;
75297;SDS011;63896;45.990;18.688;2023-08-01T08:51:48;1.85;;;1.50;;
75297;SDS011;63896;45.990;18.688;2023-08-01T08:54:52;3.47;;;1.77;;
75297;SDS011;63896;45.990;18.688;2023-08-01T08:57:55;3.58;;;1.70;;
75297;SDS011;63896;45.990;18.688;2023-08-01T09:01:02;2.87;;;1.70;;
75297;SDS011;63896;45.990;18.688;2023-08-01T09:04:06;5.22;;;1.60;;
75297;SDS011;63896;45.990;18.688;2023-08-01T09:07:09;2.28;;;2.08;;
75297;SDS011;63896;45.990;18.688;2023-08-01T09:10:13;3.90;;;1.50;;
75297;SDS011;63896;45.990;18.688;2023-08-01T09:13:16;2.75;;;1.70;;
75297;SDS011;63896;45.990;18.688;2023-08-01T09:16:20;2.57;;;1.50;;
75297;SDS011;63896;45.990;18.688;2023-08-01T09:19:23;5.03;;;1.80;;
75297;SDS011;63896;45.990;18.688;2023-08-01T09:26:15;6.00;;;1.70;;
75297;SDS011;63896;45.990;18.688;2023-08-01T09:29:20;2.53;;;1.42;;
75297;SDS011;63896;45.990;18.688;2023-08-01T09:32:23;4.17;;;1.60;;
75297;SDS011;63896;45.990;18.688;2023-08-01T09:35:26;4.50;;;1.50;;
75297;SDS011;63896;45.990;18.688;2023-08-01T09:38:33;4.15;;;1.65;;
75297;SDS011;63896;45.990;18.688;2023-08-01T09:41:37;3.78;;;1.50;;
75297;SDS011;63896;45.990;18.688;2023-08-01T09:44:39;2.40;;;1.45;;
75297;SDS011;63896;45.990;18.688;2023-08-01T09:47:49;2.33;;;1.57;;
75297;SDS011;63896;45.990;18.688;2023-08-01T09:50:52;3.35;;;1.70;;
75297;SDS011;63896;45.990;18.688;2023-08-01T09:54:07;3.53;;;1.90;;
75297;SDS011;63896;45.990;18.688;2023-08-01T09:57:09;2.35;;;1.70;;
75297;SDS011;63896;45.990;18.688;2023-08-01T10:00:14;2.20;;;1.70;;
75297;SDS011;63896;45.990;18.688;2023-08-01T10:03:16;1.97;;;1.73;;
75297;SDS011;63896;45.990;18.688;2023-08-01T10:06:24;2.50;;;1.48;;
75297;SDS011;63896;45.990;18.688;2023-08-01T10:09:32;3.55;;;1.80;;
75297;SDS011;63896;45.990;18.688;2023-08-01T10:12:37;2.17;;;1.73;;
75297;SDS011;63896;45.990;18.688;2023-08-01T10:15:42;7.80;;;1.48;;
75297;SDS011;63896;45.990;18.688;2023-08-01T10:18:46;5.03;;;1.77;;
75297;SDS011;63896;45.990;18.688;2023-08-01T10:21:49;2.58;;;1.60;;
75297;SDS011;63896;45.990;18.688;2023-08-01T10:24:56;2.28;;;1.60;;
75297;SDS011;63896;45.990;18.688;2023-08-01T10:28:01;3.53;;;1.50;;
75297;SDS011;63896;45.990;18.688;2023-08-01T10:31:08;1.92;;;1.52;;
75297;SDS011;63896;45.990;18.688;2023-08-01T10:34:16;4.43;;;1.50;;
75297;SDS011;63896;45.990;18.688;2023-08-01T10:37:19;4.38;;;1.38;;
75297;SDS011;63896;45.990;18.688;2023-08-01T10:40:32;3.80;;;1.92;;
75297;SDS011;63896;45.990;18.688;2023-08-01T10:43:38;2.85;;;1.88;;
75297;SDS011;63896;45.990;18.688;2023-08-01T10:47:00;2.70;;;1.58;;
75297;SDS011;63896;45.990;18.688;2023-08-01T10:50:12;1.97;;;1.30;;
75297;SDS011;63896;45.990;18.688;2023-08-01T10:53:16;3.38;;;1.10;;
75297;SDS011;63896;45.990;18.688;2023-08-01T10:56:19;3.33;;;1.60;;
75297;SDS011;63896;45.990;18.688;2023-08-01T10:59:23;2.25;;;1.27;;
75297;SDS011;63896;45.990;18.688;2023-08-01T11:02:26;4.30;;;1.30;;
75297;SDS011;63896;45.990;18.688;2023-08-01T11:05:30;3.20;;;1.47;;
75297;SDS011;63896;45.990;18.688;2023-08-01T11:08:37;2.33;;;1.52;;
75297;SDS011;63896;45.990;18.688;2023-08-01T11:11:40;2.03;;;1.45;;
75297;SDS011;63896;45.990;18.688;2023-08-01T11:14:43;2.20;;;1.45;;
75297;SDS011;63896;45.990;18.688;2023-08-01T11:17:47;2.60;;;1.40;;
75297;SDS011;63896;45.990;18.688;2023-08-01T11:20:55;2.37;;;1.17;;
75297;SDS011;63896;45.990;18.688;2023-08-01T11:23:58;2.65;;;1.52;;
75297;SDS011;63896;45.990;18.688;2023-08-01T11:27:01;3.67;;;1.40;;
75297;SDS011;63896;45.990;18.688;2023-08-01T11:30:04;1.83;;;1.40;;
75297;SDS011;63896;45.990;18.688;2023-08-01T11:33:17;4.43;;;1.30;;
75297;SDS011;63896;45.990;18.688;2023-08-01T11:36:27;1.73;;;1.10;;
75297;SDS011;63896;45.990;18.688;2023-08-01T11:39:31;1.85;;;1.33;;
75297;SDS011;63896;45.990;18.688;2023-08-01T11:42:34;4.32;;;1.30;;
75297;SDS011;63896;45.990;18.688;2023-08-01T11:45:37;3.85;;;1.17;;
75297;SDS011;63896;45.990;18.688;2023-08-01T11:48:44;2.83;;;1.50;;
75297;SDS011;63896;45.990;18.688;2023-08-01T11:51:49;2.20;;;1.03;;
75297;SDS011;63896;45.990;18.688;2023-08-01T11:54:52;2.20;;;1.30;;
75297;SDS011;63896;45.990;18.688;2023-08-01T11:57:57;1.92;;;1.20;;
75297;SDS011;63896;45.990;18.688;2023-08-01T12:01:08;1.52;;;1.20;;
75297;SDS011;63896;45.990;18.688;2023-08-01T12:04:23;4.00;;;1.58;;
75297;SDS011;63896;45.990;18.688;2023-08-01T12:07:27;2.53;;;1.23;;
75297;SDS011;63896;45.990;18.688;2023-08-01T12:10:41;2.38;;;1.25;;
75297;SDS011;63896;45.990;18.688;2023-08-01T12:13:45;4.25;;;1.40;;
75297;SDS011;63896;45.990;18.688;2023-08-01T12:16:48;1.40;;;1.10;;
75297;SDS011;63896;45.990;18.688;2023-08-01T12:19:51;2.13;;;1.30;;
75297;SDS011;63896;45.990;18.688;2023-08-01T12:22:54;3.43;;;1.17;;
75297;SDS011;63896;45.990;18.688;2023-08-01T12:25:56;2.55;;;1.20;;
75297;SDS011;63896;45.990;18.688;2023-08-01T12:28:59;2.88;;;1.20;;
75297;SDS011;63896;45.990;18.688;2023-08-01T12:32:02;1.67;;;1.10;;
75297;SDS011;63896;45.990;18.688;2023-08-01T12:35:06;3.08;;;1.45;;
75297;SDS011;63896;45.990;18.688;2023-08-01T12:38:09;5.63;;;1.17;;
75297;SDS011;63896;45.990;18.688;2023-08-01T12:41:12;2.83;;;1.00;;
75297;SDS011;63896;45.990;18.688;2023-08-01T12:44:15;1.83;;;1.15;;
75297;SDS011;63896;45.990;18.688;2023-08-01T12:47:19;2.58;;;1.20;;
75297;SDS011;63896;45.990;18.688;2023-08-01T12:50:22;2.03;;;1.30;;
75297;SDS011;63896;45.990;18.688;2023-08-01T12:53:25;2.77;;;1.10;;
75297;SDS011;63896;45.990;18.688;2023-08-01T12:56:33;1.60;;;1.50;;
75297;SDS011;63896;45.990;18.688;2023-08-01T12:59:36;4.05;;;1.98;;
75297;SDS011;63896;45.990;18.688;2023-08-01T13:02:39;1.30;;;1.20;;
75297;SDS011;63896;45.990;18.688;2023-08-01T13:05:42;3.55;;;1.38;;
75297;SDS011;63896;45.990;18.688;2023-08-01T13:08:45;5.87;;;1.50;;
75297;SDS011;63896;45.990;18.688;2023-08-01T13:11:50;2.75;;;1.35;;
75297;SDS011;63896;45.990;18.688;2023-08-01T13:14:54;1.60;;;1.50;;
75297;SDS011;63896;45.990;18.688;2023-08-01T13:18:17;2.45;;;1.20;;
75297;SDS011;63896;45.990;18.688;2023-08-01T13:21:21;3.15;;;1.20;;
75297;SDS011;63896;45.990;18.688;2023-08-01T13:24:24;1.50;;;1.13;;
75297;SDS011;63896;45.990;18.688;2023-08-01T13:27:27;2.67;;;1.20;;
75297;SDS011;63896;45.990;18.688;2023-08-01T13:30:30;2.03;;;1.48;;
75297;SDS011;63896;45.990;18.688;2023-08-01T13:33:33;3.47;;;1.60;;
75297;SDS011;63896;45.990;18.688;2023-08-01T13:36:36;2.03;;;1.80;;
75297;SDS011;63896;45.990;18.688;2023-08-01T13:39:39;1.47;;;1.30;;
75297;SDS011;63896;45.990;18.688;2023-08-01T13:42:42;2.42;;;1.40;;
75297;SDS011;63896;45.990;18.688;2023-08-01T13:45:45;4.43;;;1.50;;
75297;SDS011;63896;45.990;18.688;2023-08-01T13:48:47;2.38;;;1.40;;
75297;SDS011;63896;45.990;18.688;2023-08-01T13:51:50;3.40;;;1.60;;
75297;SDS011;63896;45.990;18.688;2023-08-01T13:54:53;6.90;;;1.50;;
75297;SDS011;63896;45.990;18.688;2023-08-01T13:57:56;3.28;;;1.55;;
75297;SDS011;63896;45.990;18.688;2023-08-01T14:01:03;1.55;;;1.27;;
75297;SDS011;63896;45.990;18.688;2023-08-01T14:04:09;3.78;;;1.80;;
75297;SDS011;63896;45.990;18.688;2023-08-01T14:07:14;6.45;;;1.40;;
75297;SDS011;63896;45.990;18.688;2023-08-01T14:10:18;3.67;;;1.40;;
75297;SDS011;63896;45.990;18.688;2023-08-01T14:13:21;3.05;;;1.40;;
75297;SDS011;63896;45.990;18.688;2023-08-01T14:16:24;3.25;;;1.85;;
75297;SDS011;63896;45.990;18.688;2023-08-01T14:19:27;2.63;;;1.30;;
75297;SDS011;63896;45.990;18.688;2023-08-01T14:22:32;3.33;;;1.63;;
75297;SDS011;63896;45.990;18.688;2023-08-01T14:25:35;2.57;;;1.47;;
75297;SDS011;63896;45.990;18.688;2023-08-01T14:28:37;2.47;;;1.38;;
75297;SDS011;63896;45.990;18.688;2023-08-01T14:31:40;2.22;;;1.70;;
75297;SDS011;63896;45.990;18.688;2023-08-01T14:34:43;4.00;;;1.27;;
75297;SDS011;63896;45.990;18.688;2023-08-01T14:37:46;1.80;;;1.30;;
75297;SDS011;63896;45.990;18.688;2023-08-01T14:40:53;5.73;;;1.60;;
75297;SDS011;63896;45.990;18.688;2023-08-01T14:44:16;3.72;;;1.38;;
75297;SDS011;63896;45.990;18.688;2023-08-01T14:47:19;5.32;;;1.60;;
75297;SDS011;63896;45.990;18.688;2023-08-01T14:50:23;3.03;;;1.38;;
75297;SDS011;63896;45.990;18.688;2023-08-01T14:53:25;2.63;;;1.75;;
75297;SDS011;63896;45.990;18.688;2023-08-01T14:56:28;1.93;;;1.50;;
75297;SDS011;63896;45.990;18.688;2023-08-01T14:59:32;3.55;;;1.33;;
75297;SDS011;63896;45.990;18.688;2023-08-01T15:02:35;2.75;;;1.30;;
75297;SDS011;63896;45.990;18.688;2023-08-01T15:05:37;2.53;;;1.70;;
75297;SDS011;63896;45.990;18.688;2023-08-01T15:08:40;4.45;;;1.67;;
75297;SDS011;63896;45.990;18.688;2023-08-01T15:11:44;2.83;;;1.30;;
75297;SDS011;63896;45.990;18.688;2023-08-01T15:14:46;5.50;;;1.38;;
75297;SDS011;63896;45.990;18.688;2023-08-01T15:17:49;2.28;;;1.60;;
75297;SDS011;63896;45.990;18.688;2023-08-01T15:20:52;2.22;;;1.30;;
75297;SDS011;63896;45.990;18.688;2023-08-01T15:23:55;4.18;;;1.40;;
75297;SDS011;63896;45.990;18.688;2023-08-01T15:26:58;4.97;;;1.30;;
75297;SDS011;63896;45.990;18.688;2023-08-01T15:30:02;2.65;;;1.25;;
75297;SDS011;63896;45.990;18.688;2023-08-01T15:33:05;3.40;;;1.45;;
75297;SDS011;63896;45.990;18.688;2023-08-01T15:36:10;2.22;;;1.25;;
75297;SDS011;63896;45.990;18.688;2023-08-01T15:39:14;4.57;;;1.20;;
75297;SDS011;63896;45.990;18.688;2023-08-01T15:42:19;2.43;;;1.37;;
75297;SDS011;63896;45.990;18.688;2023-08-01T15:45:37;3.75;;;1.40;;
75297;SDS011;63896;45.990;18.688;2023-08-01T15:48:40;3.85;;;1.40;;
75297;SDS011;63896;45.990;18.688;2023-08-01T15:51:43;1.70;;;1.10;;
75297;SDS011;63896;45.990;18.688;2023-08-01T15:54:49;3.05;;;1.20;;
75297;SDS011;63896;45.990;18.688;2023-08-01T15:57:52;3.20;;;1.20;;
75297;SDS011;63896;45.990;18.688;2023-08-01T16:00:55;1.98;;;1.20;;
75297;SDS011;63896;45.990;18.688;2023-08-01T16:03:59;3.42;;;1.38;;
75297;SDS011;63896;45.990;18.688;2023-08-01T16:07:02;1.88;;;1.33;;
75297;SDS011;63896;45.990;18.688;2023-08-01T16:10:05;4.22;;;1.27;;
75297;SDS011;63896;45.990;18.688;2023-08-01T16:13:09;3.60;;;1.20;;
75297;SDS011;63896;45.990;18.688;2023-08-01T16:16:13;2.05;;;1.10;;
75297;SDS011;63896;45.990;18.688;2023-08-01T16:19:34;2.40;;;1.10;;
75297;SDS011;63896;45.990;18.688;2023-08-01T16:22:37;2.63;;;1.23;;
75297;SDS011;63896;45.990;18.688;2023-08-01T16:25:40;2.15;;;1.25;;
75297;SDS011;63896;45.990;18.688;2023-08-01T16:28:47;2.80;;;1.33;;
75297;SDS011;63896;45.990;18.688;2023-08-01T16:31:50;4.32;;;1.40;;
75297;SDS011;63896;45.990;18.688;2023-08-01T16:34:58;4.95;;;1.42;;
75297;SDS011;63896;45.990;18.688;2023-08-01T16:38:01;4.20;;;1.50;;
75297;SDS011;63896;45.990;18.688;2023-08-01T16:41:11;3.75;;;1.60;;
75297;SDS011;63896;45.990;18.688;2023-08-01T16:44:14;2.73;;;1.30;;
75297;SDS011;63896;45.990;18.688;2023-08-01T16:47:17;2.78;;;1.40;;
75297;SDS011;63896;45.990;18.688;2023-08-01T16:50:40;2.30;;;1.35;;
75297;SDS011;63896;45.990;18.688;2023-08-01T16:53:43;2.38;;;1.42;;
75297;SDS011;63896;45.990;18.688;2023-08-01T16:56:46;5.38;;;1.50;;
75297;SDS011;63896;45.990;18.688;2023-08-01T16:59:49;6.47;;;5.03;;
75297;SDS011;63896;45.990;18.688;2023-08-01T17:02:52;6.80;;;4.70;;
75297;SDS011;63896;45.990;18.688;2023-08-01T17:05:55;4.93;;;3.42;;
75297;SDS011;63896;45.990;18.688;2023-08-01T17:08:59;2.75;;;1.48;;
75297;SDS011;63896;45.990;18.688;2023-08-01T17:12:02;5.85;;;1.38;;
75297;SDS011;63896;45.990;18.688;2023-08-01T17:15:06;4.77;;;1.43;;
75297;SDS011;63896;45.990;18.688;2023-08-01T17:18:09;4.78;;;1.23;;
75297;SDS011;63896;45.990;18.688;2023-08-01T17:21:12;4.22;;;1.50;;
75297;SDS011;63896;45.990;18.688;2023-08-01T17:24:15;4.53;;;1.50;;
75297;SDS011;63896;45.990;18.688;2023-08-01T17:27:18;5.05;;;1.80;;
75297;SDS011;63896;45.990;18.688;2023-08-01T17:30:21;8.50;;;2.50;;
75297;SDS011;63896;45.990;18.688;2023-08-01T17:33:24;7.50;;;3.22;;
75297;SDS011;63896;45.990;18.688;2023-08-01T17:36:27;8.27;;;3.03;;
75297;SDS011;63896;45.990;18.688;2023-08-01T17:39:30;3.70;;;2.10;;
75297;SDS011;63896;45.990;18.688;2023-08-01T17:42:33;6.57;;;2.55;;
75297;SDS011;63896;45.990;18.688;2023-08-01T17:45:36;3.90;;;1.80;;
75297;SDS011;63896;45.990;18.688;2023-08-01T17:48:39;11.65;;;1.73;;
75297;SDS011;63896;45.990;18.688;2023-08-01T17:51:42;4.63;;;2.20;;
75297;SDS011;63896;45.990;18.688;2023-08-01T17:54:45;11.63;;;2.03;;
75297;SDS011;63896;45.990;18.688;2023-08-01T17:57:48;6.90;;;1.85;;
75297;SDS011;63896;45.990;18.688;2023-08-01T18:00:51;4.83;;;1.23;;
75297;SDS011;63896;45.990;18.688;2023-08-01T18:03:54;5.47;;;1.13;;
75297;SDS011;63896;45.990;18.688;2023-08-01T18:06:57;4.28;;;1.13;;
75297;SDS011;63896;45.990;18.688;2023-08-01T18:10:00;8.43;;;1.20;;
75297;SDS011;63896;45.990;18.688;2023-08-01T18:13:03;6.22;;;1.05;;
75297;SDS011;63896;45.990;18.688;2023-08-01T18:16:09;6.17;;;0.97;;